createdAt,value
2018-06-14T00:00:32.268Z,100322.00
2018-06-14T00:05:35.502Z,100331.00
2018-06-14T00:10:38.887Z,100323.00
2018-06-14T00:15:42.295Z,100321.00
2018-06-14T00:20:45.448Z,100317.00
2018-06-14T00:25:48.583Z,100316.00
2018-06-14T00:30:51.955Z,100306.00
2018-06-14T00:35:55.263Z,100314.00
2018-06-14T00:40:58.486Z,100310.00
2018-06-14T00:46:01.666Z,100311.00
2018-06-14T00:56:22.183Z,100320.00
2018-06-14T01:01:25.336Z,100318.00
2018-06-14T01:06:28.689Z,100319.00
2018-06-14T01:11:32.105Z,100315.00
2018-06-14T01:16:35.506Z,100318.00
2018-06-14T01:21:38.584Z,100311.00
2018-06-14T01:26:41.990Z,100313.00
2018-06-14T01:31:45.219Z,100312.00
2018-06-14T01:36:48.403Z,100315.00
2018-06-14T01:41:51.650Z,100323.00
2018-06-14T01:46:55.040Z,100320.00
2018-06-14T01:51:58.241Z,100330.00
2018-06-14T01:57:01.424Z,100316.00
2018-06-14T02:02:05.366Z,100313.00
2018-06-14T02:07:08.536Z,100313.00
2018-06-14T02:12:11.820Z,100310.00
2018-06-14T02:17:15.042Z,100309.00
2018-06-14T02:22:18.179Z,100309.00
2018-06-14T02:27:21.547Z,100319.00
2018-06-14T02:32:24.842Z,100315.00
2018-06-14T02:37:28.251Z,100314.00
2018-06-14T02:42:31.375Z,100314.00
2018-06-14T02:47:34.771Z,100307.00
2018-06-14T02:52:38.179Z,100309.00
2018-06-14T02:57:41.691Z,100307.00
2018-06-14T03:02:45.122Z,100315.00
2018-06-14T03:07:48.263Z,100317.00
2018-06-14T03:12:51.506Z,100313.00
2018-06-14T03:17:54.795Z,100312.00
2018-06-14T03:22:58.039Z,100304.00
2018-06-14T03:28:01.339Z,100309.00
2018-06-14T03:33:04.470Z,100316.00
2018-06-14T03:38:07.704Z,100304.00
2018-06-14T03:43:11.126Z,100298.00
2018-06-14T03:48:14.239Z,100305.00
2018-06-14T03:53:17.342Z,100300.00
2018-06-14T03:58:20.447Z,100307.00
2018-06-14T04:03:23.460Z,100307.00
2018-06-14T04:08:26.759Z,100311.00
2018-06-14T04:13:29.890Z,100313.00
2018-06-14T04:18:33.241Z,100310.00
2018-06-14T04:23:36.390Z,100312.00
2018-06-14T04:28:39.545Z,100307.00
2018-06-14T04:33:42.700Z,100315.00
2018-06-14T04:38:45.855Z,100310.00
2018-06-14T04:43:48.970Z,100309.00
2018-06-14T04:48:52.307Z,100301.00
2018-06-14T04:53:55.504Z,100294.00
2018-06-14T04:58:58.644Z,100294.00
2018-06-14T05:04:01.818Z,100292.00
2018-06-14T05:09:09.688Z,100306.00
2018-06-14T05:14:12.934Z,100303.00
2018-06-14T05:19:16.277Z,100307.00
2018-06-14T05:24:37.758Z,100295.00
2018-06-14T05:29:41.123Z,100301.00
2018-06-14T05:34:44.291Z,100307.00
2018-06-14T05:39:47.574Z,100309.00
2018-06-14T05:44:50.748Z,100306.00
2018-06-14T05:49:53.940Z,100318.00
2018-06-14T05:54:58.443Z,100310.00
2018-06-14T06:05:46.619Z,100305.00
2018-06-14T06:10:49.922Z,100307.00
2018-06-14T06:15:53.903Z,100294.00
2018-06-14T06:20:57.234Z,100309.00
2018-06-14T06:26:00.359Z,100301.00
2018-06-14T06:31:03.356Z,100311.00
2018-06-14T06:36:06.548Z,100304.00
2018-06-14T06:41:09.835Z,100297.00
2018-06-14T06:46:13.633Z,100285.00
2018-06-14T06:51:16.797Z,100288.00
2018-06-14T06:56:19.976Z,100285.00
2018-06-14T07:01:23.283Z,100288.00
2018-06-14T07:06:26.644Z,100299.00
2018-06-14T07:11:29.874Z,100304.00
2018-06-14T07:16:32.866Z,100295.00
2018-06-14T07:21:36.026Z,100305.00
2018-06-14T07:26:39.182Z,100294.00
2018-06-14T07:31:42.269Z,100294.00
2018-06-14T07:36:45.309Z,100288.00
2018-06-14T07:41:48.374Z,100296.00
2018-06-14T07:46:51.680Z,100301.00
2018-06-14T07:51:55.088Z,100292.00
2018-06-14T07:56:58.140Z,100287.00
2018-06-14T08:02:01.199Z,100290.00
2018-06-14T08:07:04.448Z,100295.00
2018-06-14T08:12:07.516Z,100289.00
2018-06-14T08:17:10.603Z,100294.00
2018-06-14T08:22:13.704Z,100285.00
2018-06-14T08:27:16.651Z,100284.00
2018-06-14T08:32:19.737Z,100283.00
2018-06-14T08:37:27.795Z,100285.00
2018-06-14T08:42:31.327Z,100276.00
2018-06-14T08:47:34.345Z,100278.00
2018-06-14T08:52:37.535Z,100270.00
2018-06-14T08:57:40.834Z,100263.00
2018-06-14T09:02:43.884Z,100265.00
2018-06-14T09:07:47.386Z,100265.00
2018-06-14T09:12:50.490Z,100267.00
2018-06-14T09:17:54.275Z,100277.00
2018-06-14T09:22:57.340Z,100277.00
2018-06-14T09:28:00.672Z,100261.00
2018-06-14T09:33:03.717Z,100267.00
2018-06-14T09:38:06.870Z,100259.00
2018-06-14T09:43:09.958Z,100257.00
2018-06-14T09:48:13.199Z,100265.00
2018-06-14T09:53:16.242Z,100262.00
2018-06-14T09:58:19.315Z,100264.00
2018-06-14T10:03:22.439Z,100278.00
2018-06-14T10:08:25.566Z,100268.00
2018-06-14T10:13:28.789Z,100269.00
2018-06-14T10:18:31.986Z,100272.00
2018-06-14T10:23:35.337Z,100272.00
2018-06-14T10:28:38.520Z,100275.00
2018-06-14T10:33:41.658Z,100276.00
2018-06-14T10:38:44.750Z,100282.00
2018-06-14T10:43:47.911Z,100278.00
2018-06-14T10:48:50.951Z,100280.00
2018-06-14T10:53:54.019Z,100287.00
2018-06-14T10:58:57.291Z,100269.00
2018-06-14T11:04:00.593Z,100274.00
2018-06-14T11:09:06.838Z,100262.00
2018-06-14T11:14:09.992Z,100269.00
2018-06-14T11:58:49.080Z,100229.00
2018-06-14T12:08:12.097Z,100232.00
2018-06-14T12:13:15.080Z,100231.00
2018-06-14T12:18:18.108Z,100225.00
2018-06-14T12:23:21.123Z,100218.00
2018-06-14T12:28:24.116Z,100226.00
2018-06-14T12:33:27.128Z,100216.00
2018-06-14T12:38:30.258Z,100203.00
2018-06-14T12:43:33.295Z,100210.00
2018-06-14T12:54:21.540Z,100200.00
2018-06-14T12:59:24.514Z,100193.00
2018-06-14T13:04:27.489Z,100181.00
2018-06-14T13:09:30.501Z,100180.00
2018-06-14T13:14:33.610Z,100178.00
2018-06-14T13:19:36.658Z,100171.00
2018-06-14T13:24:41.751Z,100166.00
2018-06-14T13:29:44.995Z,100168.00
2018-06-14T13:34:48.025Z,100162.00
2018-06-14T13:39:51.000Z,100155.00
2018-06-14T13:44:54.091Z,100162.00
2018-06-14T13:49:57.165Z,100154.00
2018-06-14T13:55:00.145Z,100151.00
2018-06-14T14:00:03.428Z,100155.00
2018-06-14T14:05:06.447Z,100153.00
2018-06-14T14:10:09.524Z,100156.00
2018-06-14T14:15:12.845Z,100155.00
2018-06-14T14:20:15.890Z,100141.00
2018-06-14T14:25:19.151Z,100148.00
2018-06-14T14:30:22.196Z,100131.00
2018-06-14T14:35:25.117Z,100141.00
2018-06-14T14:40:28.167Z,100137.00
2018-06-14T14:45:31.257Z,100137.00
2018-06-14T14:50:34.702Z,100133.00
2018-06-14T14:55:37.657Z,100134.00
2018-06-14T15:00:40.767Z,100124.00
2018-06-14T15:05:43.764Z,100136.00
2018-06-14T15:10:46.809Z,100132.00
2018-06-14T15:15:49.824Z,100129.00
2018-06-14T15:31:48.859Z,100116.00
2018-06-14T15:36:52.065Z,100111.00
2018-06-14T15:41:55.400Z,100114.00
2018-06-14T15:46:58.465Z,100116.00
2018-06-14T15:52:01.752Z,100110.00
2018-06-14T15:57:04.876Z,100105.00
2018-06-14T16:02:07.964Z,100104.00
2018-06-14T16:07:11.234Z,100105.00
2018-06-14T16:12:14.415Z,100111.00
2018-06-14T16:17:17.624Z,100100.00
2018-06-14T16:22:20.959Z,100098.00
2018-06-14T16:27:24.310Z,100092.00
2018-06-14T16:32:27.476Z,100090.00
2018-06-14T16:37:30.686Z,100101.00
2018-06-14T16:42:33.825Z,100092.00
2018-06-14T16:47:36.868Z,100094.00
2018-06-14T16:52:39.994Z,100097.00
2018-06-14T16:57:43.194Z,100104.00
2018-06-14T17:02:46.635Z,100095.00
2018-06-14T17:07:49.754Z,100093.00
2018-06-14T17:12:52.851Z,100094.00
2018-06-14T17:17:56.147Z,100099.00
2018-06-14T17:22:59.337Z,100097.00
2018-06-14T17:28:02.564Z,100097.00
2018-06-14T17:33:05.805Z,100102.00
2018-06-14T17:38:08.894Z,100107.00
2018-06-14T17:43:12.086Z,100104.00
2018-06-14T17:48:15.369Z,100100.00
2018-06-14T17:53:18.579Z,100112.00
2018-06-14T17:58:21.721Z,100114.00
2018-06-14T18:03:24.921Z,100115.00
2018-06-14T18:08:28.084Z,100119.00
2018-06-14T18:13:31.497Z,100115.00
2018-06-14T18:18:34.913Z,100124.00
2018-06-14T18:23:38.106Z,100128.00
2018-06-14T18:28:41.217Z,100131.00
2018-06-14T18:33:44.332Z,100132.00
2018-06-14T18:38:47.666Z,100136.00
2018-06-14T18:43:50.776Z,100144.00
2018-06-14T18:48:53.873Z,100134.00
2018-06-14T18:53:57.157Z,100146.00
2018-06-14T18:59:00.241Z,100145.00
2018-06-14T19:04:03.366Z,100138.00
2018-06-14T19:09:08.580Z,100152.00
2018-06-14T19:14:11.653Z,100151.00
2018-06-14T19:19:14.868Z,100169.00
2018-06-14T19:24:17.890Z,100179.00
2018-06-14T19:29:21.160Z,100181.00
2018-06-14T19:34:24.361Z,100190.00
2018-06-14T19:39:27.546Z,100190.00
2018-06-14T19:44:30.539Z,100194.00
2018-06-14T19:49:33.598Z,100196.00
2018-06-14T19:54:36.779Z,100203.00
2018-06-14T19:59:39.958Z,100219.00
2018-06-14T20:04:43.288Z,100221.00
2018-06-14T20:09:46.654Z,100229.00
2018-06-14T20:14:49.742Z,100228.00
2018-06-14T20:19:53.006Z,100232.00
2018-06-14T20:24:56.305Z,100239.00
2018-06-14T20:29:59.535Z,100242.00
2018-06-14T20:35:02.920Z,100252.00
2018-06-14T20:40:06.446Z,100258.00
2018-06-14T20:45:09.563Z,100264.00
2018-06-14T20:50:12.615Z,100271.00
2018-06-14T20:55:15.769Z,100282.00
2018-06-14T21:00:19.163Z,100275.00
2018-06-14T21:05:22.203Z,100291.00
2018-06-14T21:10:25.230Z,100297.00
2018-06-14T21:15:29.007Z,100307.00
2018-06-14T21:20:32.212Z,100313.00
2018-06-14T21:25:35.388Z,100339.00
2018-06-14T21:30:38.686Z,100362.00
2018-06-14T21:35:41.645Z,100345.00
2018-06-14T21:40:44.744Z,100352.00
2018-06-14T21:45:47.972Z,100356.00
2018-06-14T21:50:51.006Z,100358.00
2018-06-14T21:55:54.041Z,100351.00
2018-06-14T22:00:57.336Z,100347.00
2018-06-14T22:06:00.380Z,100352.00
2018-06-14T22:11:03.429Z,100354.00
2018-06-14T22:16:06.502Z,100359.00
2018-06-14T22:21:09.756Z,100361.00
2018-06-14T22:26:12.768Z,100359.00
2018-06-14T22:31:15.884Z,100359.00
2018-06-14T22:36:18.916Z,100368.00
2018-06-14T22:41:21.967Z,100373.00
2018-06-14T22:46:24.980Z,100353.00
2018-06-14T22:53:49.892Z,100361.00
2018-06-14T22:58:52.907Z,100360.00
2018-06-14T23:03:57.096Z,100350.00
2018-06-14T23:09:04.681Z,100342.00
2018-06-14T23:14:07.904Z,100342.00
2018-06-14T23:19:10.884Z,100340.00
2018-06-14T23:24:13.987Z,100345.00
2018-06-14T23:29:16.993Z,100339.00
2018-06-14T23:34:20.159Z,100345.00
2018-06-14T23:39:23.241Z,100332.00
2018-06-14T23:44:26.232Z,100325.00
2018-06-14T23:49:29.239Z,100336.00
2018-06-14T23:54:32.217Z,100335.00
2018-06-14T23:59:35.267Z,100336.00
